Terminal Aerodrome Forecast
Issued by NWS

Home | Current Version | Previous Version | Text Only | Print | Product List | Glossary On
Versions: 1 2 3 4 5 6 7 8 9 10 11 12 13 14 15 16 17 18 19 20 21 22 23 24
000
FTUS41 KBUF 130300 AAA
TAFIAG
TAF AMD
KIAG 130305Z 1303/1324 16006KT P6SM BKN150
     FM130900 20013KT 4SM SHRA VCTS OVC035CB
     FM131500 21018G25KT P6SM OVC025
     FM131700 21020G32KT P6SM BKN035
     FM132000 23020G30KT P6SM VCTS BKN040CB
     FM132300 23016G22KT P6SM VCSH BKN035=

USA.gov is the U.S. government's official web portal to all federal, state and local government web resources and services.